createdAt,value
2019-02-28T00:01:25.187Z,19.02
2019-02-28T00:03:52.603Z,18.95
2019-02-28T00:06:19.992Z,15.68
2019-02-28T00:08:47.400Z,14.15
2019-02-28T00:11:14.845Z,17.12
2019-02-28T00:13:45.210Z,17.67
2019-02-28T00:16:12.610Z,17.55
2019-02-28T00:18:40.045Z,17.20
2019-02-28T00:21:07.462Z,17.42
2019-02-28T00:23:34.924Z,19.37
2019-02-28T00:26:02.364Z,17.80
2019-02-28T00:28:29.779Z,17.52
2019-02-28T00:30:57.276Z,17.40
2019-02-28T00:33:24.720Z,20.72
2019-02-28T00:35:52.110Z,17.85
2019-02-28T00:38:19.515Z,18.42
2019-02-28T00:40:46.939Z,18.23
2019-02-28T00:43:14.336Z,16.15
2019-02-28T00:45:41.756Z,19.55
2019-02-28T00:48:09.155Z,16.10
2019-02-28T00:50:36.604Z,18.45
2019-02-28T00:53:06.368Z,18.27
2019-02-28T00:55:33.150Z,16.65
2019-02-28T00:58:00.632Z,17.90
2019-02-28T01:00:28.046Z,17.52
2019-02-28T01:02:55.819Z,17.87
2019-02-28T01:05:23.296Z,19.35
2019-02-28T01:07:50.695Z,18.80
2019-02-28T01:10:18.107Z,18.32
2019-02-28T01:12:45.568Z,18.42
2019-02-28T01:15:13.000Z,21.15
2019-02-28T01:17:40.441Z,21.90
2019-02-28T01:20:07.865Z,19.60
2019-02-28T01:22:35.256Z,20.50
2019-02-28T01:25:02.644Z,17.98
2019-02-28T01:27:30.171Z,20.75
2019-02-28T01:29:57.568Z,17.48
2019-02-28T01:32:24.953Z,19.80
2019-02-28T01:34:52.288Z,20.45
2019-02-28T01:37:20.883Z,19.02
2019-02-28T01:39:48.714Z,19.67
2019-02-28T01:42:16.225Z,21.23
2019-02-28T01:44:45.271Z,19.62
2019-02-28T01:47:12.727Z,19.07
2019-02-28T01:49:40.157Z,20.43
2019-02-28T01:52:10.180Z,20.43
2019-02-28T01:54:36.663Z,21.68
2019-02-28T01:57:04.103Z,20.02
2019-02-28T01:59:31.575Z,19.15
2019-02-28T02:01:58.882Z,22.20
2019-02-28T02:04:26.213Z,18.60
2019-02-28T02:06:53.913Z,21.02
2019-02-28T02:09:21.373Z,19.52
2019-02-28T02:11:48.947Z,21.40
2019-02-28T02:14:16.347Z,22.58
2019-02-28T02:16:43.748Z,21.42
2019-02-28T02:19:11.233Z,22.40
2019-02-28T02:21:38.623Z,19.45
2019-02-28T02:24:06.179Z,20.77
2019-02-28T02:26:33.565Z,21.20
2019-02-28T02:29:01.852Z,21.45
2019-02-28T02:31:29.518Z,22.85
2019-02-28T02:33:57.028Z,20.65
2019-02-28T02:36:24.490Z,22.75
2019-02-28T02:38:51.915Z,22.45
2019-02-28T02:41:19.308Z,22.30
2019-02-28T02:43:46.698Z,20.88
2019-02-28T02:46:19.688Z,22.60
2019-02-28T02:48:43.409Z,21.85
2019-02-28T02:51:12.506Z,19.70
2019-02-28T02:53:42.119Z,22.67
2019-02-28T02:56:09.405Z,19.92
2019-02-28T02:58:36.842Z,20.95
2019-02-28T03:01:04.304Z,22.55
2019-02-28T03:03:31.725Z,24.35
2019-02-28T03:05:59.138Z,20.82
2019-02-28T03:08:26.621Z,22.42
2019-02-28T03:10:54.028Z,21.15
2019-02-28T03:13:21.484Z,21.27
2019-02-28T03:15:48.874Z,20.80
2019-02-28T03:18:20.408Z,23.18
2019-02-28T03:20:45.407Z,20.50
2019-02-28T03:23:12.812Z,20.70
2019-02-28T03:25:40.275Z,23.90
2019-02-28T03:28:07.820Z,22.22
2019-02-28T03:30:35.260Z,19.17
2019-02-28T03:33:02.742Z,20.55
2019-02-28T03:35:39.943Z,22.60
2019-02-28T03:37:59.360Z,19.90
2019-02-28T03:40:26.771Z,21.73
2019-02-28T03:42:54.197Z,21.93
2019-02-28T03:45:21.609Z,21.73
2019-02-28T03:47:49.017Z,20.72
2019-02-28T03:50:16.559Z,20.65
2019-02-28T03:52:44.901Z,21.48
2019-02-28T03:55:12.535Z,21.85
2019-02-28T03:57:39.988Z,22.37
2019-02-28T04:00:07.384Z,23.52
2019-02-28T04:02:34.793Z,22.65
2019-02-28T04:05:02.336Z,20.43
2019-02-28T04:07:29.807Z,21.02
2019-02-28T04:09:57.201Z,23.83
2019-02-28T04:12:24.629Z,24.57
2019-02-28T04:14:52.023Z,23.92
2019-02-28T04:17:19.503Z,20.68
2019-02-28T04:19:46.927Z,19.60
2019-02-28T04:22:14.337Z,21.93
2019-02-28T04:24:46.398Z,21.60
2019-02-28T04:27:10.889Z,21.17
2019-02-28T04:29:38.399Z,20.43
2019-02-28T04:32:05.872Z,19.42
2019-02-28T04:34:33.313Z,19.55
2019-02-28T04:37:00.779Z,20.17
2019-02-28T04:39:28.199Z,20.27
2019-02-28T04:41:55.681Z,20.80
2019-02-28T04:44:23.095Z,21.05
2019-02-28T04:46:50.521Z,22.25
2019-02-28T04:49:21.775Z,20.10
2019-02-28T04:51:47.067Z,19.00
2019-02-28T04:54:14.498Z,18.73
2019-02-28T04:56:42.347Z,18.10
2019-02-28T04:59:11.038Z,19.92
2019-02-28T05:01:38.493Z,20.85
2019-02-28T05:04:05.950Z,22.25
2019-02-28T05:06:33.377Z,23.60
2019-02-28T05:09:00.890Z,19.37
2019-02-28T05:11:30.571Z,21.45
2019-02-28T05:13:57.463Z,21.97
2019-02-28T05:16:24.895Z,19.12
2019-02-28T05:18:52.296Z,19.52
2019-02-28T05:21:20.281Z,19.60
2019-02-28T05:23:48.176Z,18.65
2019-02-28T05:26:15.590Z,19.87
2019-02-28T05:28:43.063Z,20.20
2019-02-28T05:31:10.477Z,18.77
2019-02-28T05:33:38.447Z,20.25
2019-02-28T05:36:07.016Z,19.87
2019-02-28T05:38:34.483Z,21.27
2019-02-28T05:41:01.942Z,19.40
2019-02-28T05:43:32.129Z,19.23
2019-02-28T05:45:59.435Z,20.50
2019-02-28T05:48:27.343Z,21.62
2019-02-28T05:50:54.777Z,18.82
2019-02-28T05:53:22.195Z,18.50
2019-02-28T05:55:49.675Z,19.30
2019-02-28T05:58:18.415Z,22.65
2019-02-28T06:00:46.059Z,19.80
2019-02-28T06:03:13.466Z,19.00
2019-02-28T06:05:43.433Z,19.82
2019-02-28T06:08:10.123Z,16.30
2019-02-28T06:10:37.528Z,16.80
2019-02-28T06:13:04.951Z,16.40
2019-02-28T06:15:34.231Z,16.90
2019-02-28T06:18:04.315Z,15.23
2019-02-28T06:20:31.748Z,18.17
2019-02-28T06:22:59.179Z,16.25
2019-02-28T06:25:26.554Z,16.55
2019-02-28T06:27:54.013Z,16.32
2019-02-28T06:30:21.494Z,16.48
2019-02-28T06:32:48.967Z,15.50
2019-02-28T06:35:20.235Z,17.62
2019-02-28T06:37:45.768Z,14.53
2019-02-28T06:40:13.169Z,15.08
2019-02-28T06:42:43.462Z,17.35
2019-02-28T06:45:09.921Z,19.30
2019-02-28T06:47:39.012Z,18.17
2019-02-28T06:50:06.663Z,17.98
2019-02-28T06:52:34.172Z,19.73
2019-02-28T06:55:01.680Z,15.93
2019-02-28T06:57:29.095Z,20.10
2019-02-28T06:59:56.480Z,22.77
2019-02-28T07:02:23.880Z,26.30
2019-02-28T07:04:51.371Z,27.42
2019-02-28T07:07:18.856Z,29.18
2019-02-28T07:09:46.255Z,29.67
2019-02-28T07:12:13.669Z,33.10
2019-02-28T07:14:41.065Z,37.50
2019-02-28T07:17:10.775Z,36.63
2019-02-28T07:19:37.588Z,35.55
2019-02-28T07:22:05.000Z,43.33
2019-02-28T07:24:37.269Z,37.78
2019-02-28T07:27:01.550Z,35.58
2019-02-28T07:29:28.956Z,41.53
2019-02-28T07:32:00.039Z,37.55
2019-02-28T07:34:25.554Z,37.80
2019-02-28T07:36:52.966Z,37.20
2019-02-28T07:39:20.358Z,39.75
2019-02-28T07:41:47.824Z,37.40
2019-02-28T07:44:21.259Z,39.45
2019-02-28T07:46:44.494Z,37.85
2019-02-28T07:49:12.095Z,41.08
2019-02-28T07:51:39.563Z,37.30
2019-02-28T07:54:06.959Z,37.83
2019-02-28T07:56:34.400Z,38.08
2019-02-28T07:59:05.357Z,35.60
2019-02-28T08:01:30.937Z,40.50
2019-02-28T08:03:58.367Z,39.35
2019-02-28T08:06:25.791Z,38.50
2019-02-28T08:08:53.343Z,42.35
2019-02-28T08:11:20.979Z,41.53
2019-02-28T08:13:48.564Z,43.58
2019-02-28T08:16:15.977Z,39.35
2019-02-28T08:18:43.456Z,40.75
2019-02-28T08:21:10.863Z,45.05
2019-02-28T08:23:38.272Z,51.45
2019-02-28T08:26:05.797Z,53.08
2019-02-28T08:28:36.731Z,50.85
2019-02-28T08:31:02.515Z,53.35
2019-02-28T08:33:29.956Z,55.88
2019-02-28T08:35:57.404Z,62.70
2019-02-28T08:38:24.805Z,61.20
2019-02-28T08:40:52.234Z,55.92
2019-02-28T08:43:26.893Z,59.65
2019-02-28T08:45:49.233Z,65.22
2019-02-28T08:48:16.690Z,61.42
2019-02-28T08:50:44.115Z,63.65
2019-02-28T08:53:12.469Z,60.17
2019-02-28T08:55:44.259Z,66.17
2019-02-28T08:58:10.068Z,64.50
2019-02-28T09:00:37.798Z,62.40
2019-02-28T09:03:05.364Z,62.33
2019-02-28T09:05:32.750Z,60.83
2019-02-28T09:08:00.386Z,63.35
2019-02-28T09:10:27.939Z,62.78
2019-02-28T09:12:55.326Z,64.22
2019-02-28T09:15:22.716Z,62.95
2019-02-28T09:17:50.137Z,65.03
2019-02-28T09:20:17.579Z,64.15
2019-02-28T09:22:45.225Z,64.75
2019-02-28T09:25:12.657Z,61.15
2019-02-28T09:27:40.060Z,64.22
2019-02-28T09:30:07.472Z,66.40
2019-02-28T09:32:34.981Z,70.35
2019-02-28T09:35:05.482Z,66.92
2019-02-28T09:37:31.616Z,64.60
2019-02-28T09:39:59.068Z,71.92
2019-02-28T09:42:26.487Z,66.25
2019-02-28T09:44:53.888Z,70.80
2019-02-28T09:47:23.367Z,73.28
2019-02-28T09:49:50.417Z,63.90
2019-02-28T09:52:17.886Z,70.25
2019-02-28T09:54:45.475Z,70.17
2019-02-28T09:57:15.386Z,68.20
2019-02-28T09:59:42.024Z,70.45
2019-02-28T10:02:09.638Z,71.15
2019-02-28T10:04:37.123Z,67.58
2019-02-28T10:07:04.569Z,76.15
2019-02-28T10:09:31.971Z,68.20
2019-02-28T10:11:59.408Z,73.28
2019-02-28T10:14:28.820Z,67.50
2019-02-28T10:16:55.931Z,65.60
2019-02-28T10:19:23.827Z,69.45
2019-02-28T10:21:52.083Z,68.67
2019-02-28T10:24:19.831Z,66.40
2019-02-28T10:26:48.249Z,65.80
2019-02-28T10:29:16.370Z,69.53
2019-02-28T10:31:43.779Z,65.12
2019-02-28T10:34:11.209Z,63.65
2019-02-28T10:36:38.673Z,61.58
2019-02-28T10:39:08.942Z,64.67
2019-02-28T10:41:35.332Z,59.08
2019-02-28T10:44:02.748Z,55.75
2019-02-28T10:46:30.128Z,56.88
2019-02-28T10:48:57.530Z,56.90
2019-02-28T10:51:24.932Z,58.33
2019-02-28T10:53:52.568Z,56.37
2019-02-28T10:56:20.067Z,52.62
2019-02-28T10:58:50.086Z,52.62
2019-02-28T11:01:17.678Z,54.85
2019-02-28T11:03:45.115Z,56.95
2019-02-28T11:06:12.532Z,57.33
2019-02-28T11:08:40.013Z,56.83
2019-02-28T11:11:10.396Z,51.48
2019-02-28T11:13:36.585Z,54.13
2019-02-28T11:16:04.041Z,56.58
2019-02-28T11:18:31.429Z,60.00
2019-02-28T11:20:59.372Z,65.65
2019-02-28T11:23:26.824Z,63.58
2019-02-28T11:25:54.280Z,69.67
2019-02-28T11:28:21.675Z,70.37
2019-02-28T11:30:49.253Z,71.65
2019-02-28T11:33:16.706Z,72.17
2019-02-28T11:35:44.148Z,73.42
2019-02-28T11:38:11.597Z,72.08
2019-02-28T11:40:40.528Z,72.78
2019-02-28T11:43:08.150Z,70.10
2019-02-28T11:45:35.542Z,74.58
2019-02-28T11:48:02.981Z,68.30
2019-02-28T11:50:30.440Z,74.27
2019-02-28T11:53:03.289Z,71.07
2019-02-28T11:55:27.214Z,64.90
2019-02-28T11:57:54.728Z,66.35
2019-02-28T12:00:22.148Z,68.00
2019-02-28T12:02:53.220Z,67.65
2019-02-28T12:05:18.907Z,69.15
2019-02-28T12:07:46.301Z,67.10
2019-02-28T12:10:14.821Z,64.30
2019-02-28T12:12:44.669Z,62.40
2019-02-28T12:15:11.351Z,64.20
2019-02-28T12:17:38.775Z,58.90
2019-02-28T12:20:06.186Z,59.42
2019-02-28T12:22:33.647Z,57.08
2019-02-28T12:25:04.422Z,54.33
2019-02-28T12:27:30.558Z,46.95
2019-02-28T12:29:58.014Z,50.45
2019-02-28T12:32:25.495Z,48.20
2019-02-28T12:34:52.945Z,44.48
2019-02-28T12:37:22.113Z,44.73
2019-02-28T12:39:49.707Z,41.92
2019-02-28T12:42:17.121Z,38.98
2019-02-28T12:44:46.281Z,36.03
2019-02-28T12:47:13.816Z,32.63
2019-02-28T12:49:41.278Z,34.08
2019-02-28T12:52:11.254Z,31.12
2019-02-28T12:54:38.188Z,31.15
2019-02-28T12:57:05.646Z,31.20
2019-02-28T12:59:34.776Z,27.67
2019-02-28T13:02:07.438Z,25.32
2019-02-28T13:04:32.525Z,26.07
2019-02-28T13:07:00.455Z,24.30
2019-02-28T13:09:27.881Z,25.32
2019-02-28T13:11:55.282Z,23.83
2019-02-28T13:14:22.770Z,22.50
2019-02-28T13:16:50.312Z,20.60
2019-02-28T13:19:20.102Z,18.25
2019-02-28T13:21:47.855Z,20.05
2019-02-28T13:24:15.460Z,19.05
2019-02-28T13:26:42.951Z,18.17
2019-02-28T13:29:10.387Z,18.20
2019-02-28T13:31:37.889Z,14.23
2019-02-28T13:34:05.431Z,16.57
2019-02-28T13:36:32.942Z,13.93
2019-02-28T13:39:00.547Z,13.90
2019-02-28T13:41:28.106Z,17.05
2019-02-28T13:43:59.436Z,12.45
2019-02-28T13:46:32.246Z,13.58
2019-02-28T13:48:53.952Z,13.83
2019-02-28T13:51:21.366Z,16.55
2019-02-28T13:53:48.830Z,14.45
2019-02-28T13:56:18.004Z,15.20
2019-02-28T13:58:45.600Z,13.68
2019-02-28T14:01:13.054Z,11.48
2019-02-28T14:03:42.249Z,13.55
2019-02-28T14:06:12.270Z,13.38
2019-02-28T14:08:38.896Z,10.43
2019-02-28T14:11:10.138Z,11.68
2019-02-28T14:13:35.537Z,12.63
2019-02-28T14:16:03.065Z,10.48
2019-02-28T14:18:30.585Z,13.72
2019-02-28T14:20:59.509Z,11.88
2019-02-28T14:23:27.235Z,15.28
2019-02-28T14:25:54.669Z,13.32
2019-02-28T14:28:22.077Z,11.40
2019-02-28T14:30:49.512Z,11.35
2019-02-28T14:33:19.473Z,12.55
2019-02-28T14:35:46.102Z,13.00
2019-02-28T14:38:13.824Z,12.43
2019-02-28T14:40:41.237Z,16.23
2019-02-28T14:43:08.652Z,12.58
2019-02-28T14:45:39.279Z,10.82
2019-02-28T14:48:05.255Z,9.50
2019-02-28T14:50:32.768Z,11.22
2019-02-28T14:53:00.175Z,11.75
2019-02-28T14:55:29.299Z,9.90
2019-02-28T14:57:56.791Z,9.18
2019-02-28T15:00:25.612Z,10.85
2019-02-28T15:02:53.353Z,14.83
2019-02-28T15:05:21.654Z,10.23
2019-02-28T15:07:49.291Z,11.00
2019-02-28T15:10:16.687Z,7.75
2019-02-28T15:12:44.207Z,10.82
2019-02-28T15:15:11.617Z,8.45
2019-02-28T15:17:40.531Z,11.10
2019-02-28T15:20:08.222Z,13.20
2019-02-28T15:22:35.615Z,9.83
2019-02-28T15:25:04.404Z,9.93
2019-02-28T15:27:32.124Z,9.40
2019-02-28T15:29:59.839Z,7.80
2019-02-28T15:32:27.436Z,9.98
2019-02-28T15:34:54.857Z,8.65
2019-02-28T15:37:22.262Z,11.15
2019-02-28T15:39:50.044Z,13.28
2019-02-28T15:42:18.316Z,11.18
2019-02-28T15:44:45.731Z,12.55
2019-02-28T15:47:13.115Z,9.93
2019-02-28T15:49:41.825Z,12.40
2019-02-28T15:52:09.823Z,9.95
2019-02-28T15:54:37.257Z,9.30
2019-02-28T15:57:04.777Z,9.93
2019-02-28T15:59:32.255Z,14.30
2019-02-28T16:01:59.721Z,12.60
2019-02-28T16:04:27.152Z,11.70
2019-02-28T16:06:57.958Z,12.25
2019-02-28T16:09:23.671Z,10.35
2019-02-28T16:11:51.104Z,13.58
2019-02-28T16:14:18.627Z,13.75
2019-02-28T16:16:46.114Z,12.15
2019-02-28T16:19:13.592Z,16.02
2019-02-28T16:21:41.605Z,10.95
2019-02-28T16:24:09.113Z,13.90
2019-02-28T16:26:36.614Z,14.63
2019-02-28T16:29:04.063Z,15.88
2019-02-28T16:31:31.555Z,16.05
2019-02-28T16:34:08.036Z,13.58
2019-02-28T16:36:29.219Z,14.85
2019-02-28T16:38:56.834Z,22.45
2019-02-28T16:41:24.352Z,15.60
2019-02-28T16:43:52.261Z,11.63
2019-02-28T16:46:21.054Z,11.03
2019-02-28T16:48:48.492Z,12.10
2019-02-28T16:51:18.696Z,13.13
2019-02-28T16:53:47.890Z,13.95
2019-02-28T16:56:16.012Z,14.05
2019-02-28T16:58:43.555Z,12.13
2019-02-28T17:01:11.015Z,14.80
2019-02-28T17:03:41.755Z,13.45
2019-02-28T17:06:07.911Z,10.60
2019-02-28T17:08:41.539Z,16.00
2019-02-28T17:11:08.950Z,20.97
2019-02-28T17:13:41.813Z,11.73
2019-02-28T17:16:21.853Z,13.48
2019-02-28T17:18:49.324Z,10.50
2019-02-28T17:21:18.040Z,12.60
2019-02-28T17:23:45.655Z,10.15
2019-02-28T17:26:13.105Z,13.30
2019-02-28T17:29:02.526Z,9.70
2019-02-28T17:31:48.244Z,8.63
2019-02-28T17:34:23.759Z,8.30
2019-02-28T17:36:48.658Z,11.28
2019-02-28T17:39:16.061Z,13.18
2019-02-28T17:41:43.507Z,8.20
2019-02-28T17:44:10.923Z,9.83
2019-02-28T17:46:38.431Z,12.20
2019-02-28T17:49:05.852Z,11.90
2019-02-28T17:51:33.246Z,10.55
2019-02-28T17:54:00.718Z,10.43
2019-02-28T17:56:28.149Z,8.90
2019-02-28T17:58:55.574Z,8.05
2019-02-28T18:01:25.397Z,10.85
2019-02-28T18:03:52.180Z,6.70
2019-02-28T18:06:19.574Z,9.98
2019-02-28T18:08:46.971Z,7.40
2019-02-28T18:11:14.393Z,11.63
2019-02-28T18:13:41.796Z,11.35
2019-02-28T18:16:09.215Z,9.90
2019-02-28T18:18:36.705Z,12.33
2019-02-28T18:21:04.535Z,10.30
2019-02-28T18:23:33.253Z,9.65
2019-02-28T18:26:00.643Z,10.20
2019-02-28T18:28:28.296Z,12.90
2019-02-28T18:30:55.727Z,8.45
2019-02-28T18:33:23.143Z,12.70
2019-02-28T18:35:50.547Z,11.15
2019-02-28T18:38:18.049Z,10.18
2019-02-28T18:40:45.515Z,12.53
2019-02-28T18:43:12.938Z,8.18
2019-02-28T18:45:40.746Z,11.22
2019-02-28T18:48:08.183Z,10.23
2019-02-28T18:50:35.555Z,10.40
2019-02-28T18:53:03.279Z,13.20
2019-02-28T18:55:34.846Z,13.15
2019-02-28T18:58:01.371Z,11.85
2019-02-28T19:00:29.024Z,13.22
2019-02-28T19:02:56.453Z,10.55
2019-02-28T19:05:25.840Z,14.38
2019-02-28T19:07:53.028Z,11.50
2019-02-28T19:10:20.626Z,12.70
2019-02-28T19:12:48.207Z,12.58
2019-02-28T19:15:15.663Z,14.50
2019-02-28T19:17:43.059Z,12.95
2019-02-28T19:20:10.470Z,14.83
2019-02-28T19:22:37.895Z,13.58
2019-02-28T19:25:05.322Z,12.85
2019-02-28T19:27:32.715Z,15.03
2019-02-28T19:30:00.288Z,14.15
2019-02-28T19:32:27.721Z,17.05
2019-02-28T19:34:55.123Z,13.32
2019-02-28T19:37:22.671Z,15.23
2019-02-28T19:39:50.262Z,15.63
2019-02-28T19:42:17.677Z,18.20
2019-02-28T19:44:45.128Z,13.70
2019-02-28T19:47:12.579Z,16.60
2019-02-28T19:49:39.985Z,16.52
2019-02-28T19:52:07.446Z,14.78
2019-02-28T19:54:34.913Z,17.35
2019-02-28T19:57:02.347Z,16.17
2019-02-28T19:59:29.828Z,18.82
2019-02-28T20:01:57.298Z,15.03
2019-02-28T20:04:24.747Z,19.48
2019-02-28T20:06:52.250Z,18.02
2019-02-28T20:09:19.693Z,14.43
2019-02-28T20:11:47.736Z,17.98
2019-02-28T20:14:15.171Z,18.80
2019-02-28T20:16:42.590Z,18.57
2019-02-28T20:19:10.445Z,19.85
2019-02-28T20:21:37.942Z,19.92
2019-02-28T20:24:05.432Z,19.35
2019-02-28T20:26:32.871Z,19.45
2019-02-28T20:29:00.378Z,16.73
2019-02-28T20:31:27.792Z,18.07
2019-02-28T20:33:55.333Z,20.57
2019-02-28T20:36:22.724Z,17.82
2019-02-28T20:38:50.134Z,15.68
2019-02-28T20:41:17.579Z,15.38
2019-02-28T20:43:45.149Z,16.67
2019-02-28T20:46:12.554Z,20.48
2019-02-28T20:48:40.018Z,14.43
2019-02-28T20:51:07.469Z,18.02
2019-02-28T20:53:34.881Z,14.20
2019-02-28T20:56:02.362Z,13.55
2019-02-28T20:58:29.912Z,15.20
2019-02-28T21:00:57.352Z,10.50
2019-02-28T21:03:25.080Z,13.80
2019-02-28T21:05:52.524Z,11.28
2019-02-28T21:08:20.044Z,11.88
2019-02-28T21:10:47.493Z,14.45
2019-02-28T21:13:14.911Z,14.98
2019-02-28T21:15:42.328Z,13.48
2019-02-28T21:18:10.034Z,13.10
2019-02-28T21:20:37.431Z,10.82
2019-02-28T21:23:04.847Z,13.22
2019-02-28T21:25:32.308Z,13.18
2019-02-28T21:27:59.930Z,10.23
2019-02-28T21:30:27.356Z,11.68
2019-02-28T21:32:54.867Z,13.05
2019-02-28T21:35:22.326Z,9.90
2019-02-28T21:37:49.868Z,11.68
2019-02-28T21:40:17.339Z,10.55
2019-02-28T21:42:44.767Z,8.50
2019-02-28T21:45:12.189Z,14.25
2019-02-28T21:47:39.740Z,12.93
2019-02-28T21:50:07.642Z,10.60
2019-02-28T21:52:35.130Z,13.40
2019-02-28T21:55:02.579Z,14.50
2019-02-28T21:57:30.105Z,10.38
2019-02-28T21:59:57.514Z,10.55
2019-02-28T22:02:25.034Z,10.30
2019-02-28T22:04:52.547Z,9.15
2019-02-28T22:07:19.968Z,9.78
2019-02-28T22:09:47.496Z,9.20
2019-02-28T22:12:14.916Z,14.80
2019-02-28T22:14:42.359Z,11.38
2019-02-28T22:17:09.864Z,11.57
2019-02-28T22:19:37.300Z,10.48
2019-02-28T22:22:04.763Z,9.43
2019-02-28T22:24:32.271Z,9.78
2019-02-28T22:26:59.689Z,13.18
2019-02-28T22:29:27.582Z,10.65
2019-02-28T22:32:04.161Z,12.05
2019-02-28T22:34:51.304Z,12.65
2019-02-28T22:37:18.820Z,10.15
2019-02-28T22:39:46.227Z,13.35
2019-02-28T22:42:21.580Z,9.45
2019-02-28T22:44:42.826Z,10.85
2019-02-28T22:47:10.290Z,11.10
2019-02-28T22:49:37.763Z,8.88
2019-02-28T22:52:05.863Z,11.97
2019-02-28T22:54:34.228Z,12.03
2019-02-28T22:57:01.792Z,8.68
2019-02-28T22:59:29.267Z,9.85
2019-02-28T23:01:56.749Z,12.10
2019-02-28T23:04:24.209Z,7.75
2019-02-28T23:06:51.710Z,10.70
2019-02-28T23:09:19.185Z,9.73
2019-02-28T23:11:46.594Z,8.23
2019-02-28T23:14:14.016Z,11.75
2019-02-28T23:16:41.527Z,12.00
2019-02-28T23:19:09.089Z,12.50
2019-02-28T23:21:36.519Z,8.65
2019-02-28T23:24:03.959Z,10.50
2019-02-28T23:26:31.363Z,10.30
2019-02-28T23:28:58.796Z,13.20
2019-02-28T23:31:26.624Z,14.50
2019-02-28T23:34:01.116Z,17.23
2019-02-28T23:36:23.161Z,13.03
2019-02-28T23:38:50.690Z,15.70
2019-02-28T23:41:18.149Z,16.67
2019-02-28T23:43:45.588Z,16.20
2019-02-28T23:46:13.050Z,21.65
2019-02-28T23:48:42.362Z,21.60
2019-02-28T23:51:09.604Z,24.32
2019-02-28T23:53:37.116Z,19.23
2019-02-28T23:56:04.524Z,22.85
2019-02-28T23:58:32.006Z,22.73
